sensor_id;sensor_type;location;lat;lon;timestamp;pressure;altitude;pressure_sealevel;temperature;humidity
69257;BME280;56376;53.356;-1.748;2023-03-16T00:00:56;98531.88;;;4.93;100.00
69257;BME280;56376;53.356;-1.748;2023-03-16T00:03:21;98512.03;;;4.94;100.00
69257;BME280;56376;53.356;-1.748;2023-03-16T00:05:48;98517.13;;;4.97;100.00
69257;BME280;56376;53.356;-1.748;2023-03-16T00:08:14;98517.13;;;4.97;100.00
69257;BME280;56376;53.356;-1.748;2023-03-16T00:10:40;98514.53;;;4.97;100.00
69257;BME280;56376;53.356;-1.748;2023-03-16T00:13:15;98511.88;;;4.98;100.00
69257;BME280;56376;53.356;-1.748;2023-03-16T00:15:48;98510.16;;;4.99;100.00
69257;BME280;56376;53.356;-1.748;2023-03-16T00:18:14;98505.81;;;4.99;100.00
69257;BME280;56376;53.356;-1.748;2023-03-16T00:20:39;98504.03;;;5.02;100.00
69257;BME280;56376;53.356;-1.748;2023-03-16T00:23:06;98503.09;;;5.04;100.00
69257;BME280;56376;53.356;-1.748;2023-03-16T00:25:32;98483.34;;;5.02;100.00
69257;BME280;56376;53.356;-1.748;2023-03-16T00:27:58;98493.59;;;5.05;100.00
69257;BME280;56376;53.356;-1.748;2023-03-16T00:30:23;98482.41;;;5.04;100.00
69257;BME280;56376;53.356;-1.748;2023-03-16T00:32:49;98473.75;;;5.04;100.00
69257;BME280;56376;53.356;-1.748;2023-03-16T00:35:18;98483.16;;;5.06;100.00
69257;BME280;56376;53.356;-1.748;2023-03-16T00:37:43;98468.50;;;5.07;100.00
69257;BME280;56376;53.356;-1.748;2023-03-16T00:40:09;98461.50;;;5.09;100.00
69257;BME280;56376;53.356;-1.748;2023-03-16T00:42:36;98460.56;;;5.11;100.00
69257;BME280;56376;53.356;-1.748;2023-03-16T00:45:02;98451.97;;;5.11;100.00
69257;BME280;56376;53.356;-1.748;2023-03-16T00:47:31;98457.09;;;5.12;100.00
69257;BME280;56376;53.356;-1.748;2023-03-16T00:49:57;98451.03;;;5.13;100.00
69257;BME280;56376;53.356;-1.748;2023-03-16T00:52:23;98439.78;;;5.14;100.00
69257;BME280;56376;53.356;-1.748;2023-03-16T00:54:51;98432.03;;;5.14;100.00
69257;BME280;56376;53.356;-1.748;2023-03-16T00:57:22;98427.63;;;5.16;100.00
69257;BME280;56376;53.356;-1.748;2023-03-16T00:59:49;98425.84;;;5.18;100.00
69257;BME280;56376;53.356;-1.748;2023-03-16T01:02:16;98418.88;;;5.20;100.00
69257;BME280;56376;53.356;-1.748;2023-03-16T01:04:43;98419.69;;;5.23;100.00
69257;BME280;56376;53.356;-1.748;2023-03-16T01:07:11;98416.19;;;5.24;100.00
69257;BME280;56376;53.356;-1.748;2023-03-16T01:09:38;98407.47;;;5.26;100.00
69257;BME280;56376;53.356;-1.748;2023-03-16T01:12:09;98400.56;;;5.27;100.00
69257;BME280;56376;53.356;-1.748;2023-03-16T01:14:35;98400.56;;;5.27;100.00
69257;BME280;56376;53.356;-1.748;2023-03-16T01:17:01;98387.50;;;5.30;100.00
69257;BME280;56376;53.356;-1.748;2023-03-16T01:19:28;98402.16;;;5.31;100.00
69257;BME280;56376;53.356;-1.748;2023-03-16T01:21:54;98376.31;;;5.29;100.00
69257;BME280;56376;53.356;-1.748;2023-03-16T01:24:19;98382.22;;;5.33;100.00
69257;BME280;56376;53.356;-1.748;2023-03-16T01:26:45;98367.50;;;5.35;100.00
69257;BME280;56376;53.356;-1.748;2023-03-16T01:29:10;98373.50;;;5.35;100.00
69257;BME280;56376;53.356;-1.748;2023-03-16T01:31:37;98368.22;;;5.38;100.00
69257;BME280;56376;53.356;-1.748;2023-03-16T01:34:03;98362.19;;;5.38;100.00
69257;BME280;56376;53.356;-1.748;2023-03-16T01:36:28;98355.28;;;5.38;100.00
69257;BME280;56376;53.356;-1.748;2023-03-16T01:38:55;98360.41;;;5.40;100.00
69257;BME280;56376;53.356;-1.748;2023-03-16T01:41:21;98353.47;;;5.40;100.00
69257;BME280;56376;53.356;-1.748;2023-03-16T01:43:46;98351.69;;;5.42;100.00
69257;BME280;56376;53.356;-1.748;2023-03-16T01:46:18;98349.91;;;5.45;100.00
69257;BME280;56376;53.356;-1.748;2023-03-16T01:48:57;98345.56;;;5.45;100.00
69257;BME280;56376;53.356;-1.748;2023-03-16T01:54:09;98344.63;;;5.48;100.00
69257;BME280;56376;53.356;-1.748;2023-03-16T01:57:06;98339.34;;;5.49;100.00
69257;BME280;56376;53.356;-1.748;2023-03-16T01:59:39;98337.56;;;5.51;100.00
69257;BME280;56376;53.356;-1.748;2023-03-16T02:02:08;98332.28;;;5.54;100.00
69257;BME280;56376;53.356;-1.748;2023-03-16T02:04:39;98324.47;;;5.56;100.00
69257;BME280;56376;53.356;-1.748;2023-03-16T02:07:06;98329.59;;;5.57;100.00
69257;BME280;56376;53.356;-1.748;2023-03-16T02:09:38;98337.25;;;5.60;100.00
69257;BME280;56376;53.356;-1.748;2023-03-16T02:12:07;98320.03;;;5.59;100.00
69257;BME280;56376;53.356;-1.748;2023-03-16T02:14:33;98320.88;;;5.60;100.00
69257;BME280;56376;53.356;-1.748;2023-03-16T02:16:59;98322.63;;;5.59;100.00
69257;BME280;56376;53.356;-1.748;2023-03-16T02:19:44;98314.75;;;5.62;100.00
69257;BME280;56376;53.356;-1.748;2023-03-16T02:22:12;98301.78;;;5.62;100.00
69257;BME280;56376;53.356;-1.748;2023-03-16T02:24:38;98297.41;;;5.64;100.00
69257;BME280;56376;53.356;-1.748;2023-03-16T02:27:07;98311.13;;;5.67;100.00
69257;BME280;56376;53.356;-1.748;2023-03-16T02:32:22;98292.97;;;5.67;100.00
69257;BME280;56376;53.356;-1.748;2023-03-16T02:34:48;98283.50;;;5.67;100.00
69257;BME280;56376;53.356;-1.748;2023-03-16T02:37:13;98279.16;;;5.68;100.00
69257;BME280;56376;53.356;-1.748;2023-03-16T02:39:39;98287.72;;;5.70;100.00
69257;BME280;56376;53.356;-1.748;2023-03-16T02:42:14;98281.63;;;5.71;100.00
69257;BME280;56376;53.356;-1.748;2023-03-16T02:44:41;98274.66;;;5.73;100.00
69257;BME280;56376;53.356;-1.748;2023-03-16T02:47:36;98265.97;;;5.74;100.00
69257;BME280;56376;53.356;-1.748;2023-03-16T02:50:05;98268.50;;;5.75;100.00
69257;BME280;56376;53.356;-1.748;2023-03-16T02:52:35;98264.94;;;5.78;100.00
69257;BME280;56376;53.356;-1.748;2023-03-16T02:55:00;98252.00;;;5.78;100.00
69257;BME280;56376;53.356;-1.748;2023-03-16T02:57:26;98254.63;;;5.76;100.00
69257;BME280;56376;53.356;-1.748;2023-03-16T02:59:51;98255.44;;;5.78;100.00
69257;BME280;56376;53.356;-1.748;2023-03-16T03:02:17;98248.56;;;5.77;100.00
69257;BME280;56376;53.356;-1.748;2023-03-16T03:04:42;98231.31;;;5.76;100.00
69257;BME280;56376;53.356;-1.748;2023-03-16T03:07:11;98241.50;;;5.81;100.00
69257;BME280;56376;53.356;-1.748;2023-03-16T03:09:41;98244.06;;;5.82;100.00
69257;BME280;56376;53.356;-1.748;2023-03-16T03:12:10;98233.69;;;5.82;100.00
69257;BME280;56376;53.356;-1.748;2023-03-16T03:14:36;98222.41;;;5.83;100.00
69257;BME280;56376;53.356;-1.748;2023-03-16T03:17:06;98225.84;;;5.84;100.00
69257;BME280;56376;53.356;-1.748;2023-03-16T03:19:35;98220.66;;;5.84;100.00
69257;BME280;56376;53.356;-1.748;2023-03-16T03:22:04;98230.91;;;5.87;100.00
69257;BME280;56376;53.356;-1.748;2023-03-16T03:24:31;98229.19;;;5.88;100.00
69257;BME280;56376;53.356;-1.748;2023-03-16T03:26:57;98223.88;;;5.91;100.00
69257;BME280;56376;53.356;-1.748;2023-03-16T03:29:26;98218.81;;;5.88;100.00
69257;BME280;56376;53.356;-1.748;2023-03-16T03:32:01;98216.88;;;5.93;100.00
69257;BME280;56376;53.356;-1.748;2023-03-16T03:34:28;98215.00;;;5.98;100.00
69257;BME280;56376;53.356;-1.748;2023-03-16T03:36:54;98207.88;;;6.03;100.00
69257;BME280;56376;53.356;-1.748;2023-03-16T03:39:20;98210.34;;;6.06;100.00
69257;BME280;56376;53.356;-1.748;2023-03-16T03:41:45;98210.22;;;6.09;100.00
69257;BME280;56376;53.356;-1.748;2023-03-16T03:44:10;98200.59;;;6.13;100.00
69257;BME280;56376;53.356;-1.748;2023-03-16T03:46:36;98192.69;;;6.16;100.00
69257;BME280;56376;53.356;-1.748;2023-03-16T03:49:01;98196.97;;;6.17;100.00
69257;BME280;56376;53.356;-1.748;2023-03-16T03:51:30;98189.91;;;6.20;100.00
69257;BME280;56376;53.356;-1.748;2023-03-16T03:53:56;98191.53;;;6.23;100.00
69257;BME280;56376;53.356;-1.748;2023-03-16T03:56:22;98187.91;;;6.27;100.00
69257;BME280;56376;53.356;-1.748;2023-03-16T03:58:47;98190.44;;;6.28;100.00
69257;BME280;56376;53.356;-1.748;2023-03-16T04:01:13;98195.47;;;6.33;100.00
69257;BME280;56376;53.356;-1.748;2023-03-16T04:03:38;98201.44;;;6.35;100.00
69257;BME280;56376;53.356;-1.748;2023-03-16T04:06:03;98196.03;;;6.40;100.00
69257;BME280;56376;53.356;-1.748;2023-03-16T04:08:31;98189.81;;;6.44;100.00
69257;BME280;56376;53.356;-1.748;2023-03-16T04:10:56;98191.41;;;6.48;100.00
69257;BME280;56376;53.356;-1.748;2023-03-16T04:13:22;98188.59;;;6.53;100.00
69257;BME280;56376;53.356;-1.748;2023-03-16T04:15:47;98183.34;;;6.54;100.00
69257;BME280;56376;53.356;-1.748;2023-03-16T04:18:13;98185.81;;;6.57;100.00
69257;BME280;56376;53.356;-1.748;2023-03-16T04:20:38;98181.41;;;6.59;100.00
69257;BME280;56376;53.356;-1.748;2023-03-16T04:23:04;98184.72;;;6.63;100.00
69257;BME280;56376;53.356;-1.748;2023-03-16T04:25:30;98183.44;;;6.73;100.00
69257;BME280;56376;53.356;-1.748;2023-03-16T04:27:55;98185.94;;;6.75;100.00
69257;BME280;56376;53.356;-1.748;2023-03-16T04:30:21;98176.41;;;6.75;100.00
69257;BME280;56376;53.356;-1.748;2023-03-16T04:32:49;98170.34;;;6.76;100.00
69257;BME280;56376;53.356;-1.748;2023-03-16T04:35:16;98167.59;;;6.79;100.00
69257;BME280;56376;53.356;-1.748;2023-03-16T04:37:42;98182.19;;;6.82;100.00
69257;BME280;56376;53.356;-1.748;2023-03-16T04:40:08;98174.28;;;6.85;100.00
69257;BME280;56376;53.356;-1.748;2023-03-16T04:42:40;98177.59;;;6.88;100.00
69257;BME280;56376;53.356;-1.748;2023-03-16T04:45:05;98174.88;;;6.91;100.00
69257;BME280;56376;53.356;-1.748;2023-03-16T04:47:31;98157.63;;;6.90;100.00
69257;BME280;56376;53.356;-1.748;2023-03-16T04:49:59;98174.88;;;6.91;100.00
69257;BME280;56376;53.356;-1.748;2023-03-16T04:52:24;98173.94;;;6.92;100.00
69257;BME280;56376;53.356;-1.748;2023-03-16T04:54:49;98177.25;;;6.96;100.00
69257;BME280;56376;53.356;-1.748;2023-03-16T04:57:16;98171.16;;;6.97;100.00
69257;BME280;56376;53.356;-1.748;2023-03-16T04:59:43;98171.00;;;7.00;100.00
69257;BME280;56376;53.356;-1.748;2023-03-16T05:02:09;98170.25;;;6.98;100.00
69257;BME280;56376;53.356;-1.748;2023-03-16T05:04:34;98165.91;;;6.99;100.00
69257;BME280;56376;53.356;-1.748;2023-03-16T05:07:00;98162.25;;;7.03;100.00
69257;BME280;56376;53.356;-1.748;2023-03-16T05:09:25;98157.91;;;7.03;100.00
69257;BME280;56376;53.356;-1.748;2023-03-16T05:11:51;98170.91;;;7.03;100.00
69257;BME280;56376;53.356;-1.748;2023-03-16T05:14:16;98164.84;;;7.03;100.00
69257;BME280;56376;53.356;-1.748;2023-03-16T05:16:41;98169.16;;;7.04;100.00
69257;BME280;56376;53.356;-1.748;2023-03-16T05:19:07;98163.94;;;7.04;100.00
69257;BME280;56376;53.356;-1.748;2023-03-16T05:21:32;98171.66;;;7.05;100.00
69257;BME280;56376;53.356;-1.748;2023-03-16T05:23:58;98170.69;;;7.08;100.00
69257;BME280;56376;53.356;-1.748;2023-03-16T05:26:24;98160.28;;;7.08;100.00
69257;BME280;56376;53.356;-1.748;2023-03-16T05:28:52;98165.38;;;7.11;100.00
69257;BME280;56376;53.356;-1.748;2023-03-16T05:31:17;98162.84;;;7.09;100.00
69257;BME280;56376;53.356;-1.748;2023-03-16T05:33:43;98161.91;;;7.10;100.00
69257;BME280;56376;53.356;-1.748;2023-03-16T05:36:09;98159.31;;;7.10;100.00
69257;BME280;56376;53.356;-1.748;2023-03-16T05:38:35;98158.34;;;7.13;100.00
69257;BME280;56376;53.356;-1.748;2023-03-16T05:41:01;98156.66;;;7.12;100.00
69257;BME280;56376;53.356;-1.748;2023-03-16T05:43:29;98154.69;;;7.17;100.00
69257;BME280;56376;53.356;-1.748;2023-03-16T05:45:55;98158.13;;;7.18;100.00
69257;BME280;56376;53.356;-1.748;2023-03-16T05:48:21;98153.78;;;7.18;100.00
69257;BME280;56376;53.356;-1.748;2023-03-16T05:50:46;98158.91;;;7.20;100.00
69257;BME280;56376;53.356;-1.748;2023-03-16T05:53:12;98156.25;;;7.21;100.00
69257;BME280;56376;53.356;-1.748;2023-03-16T05:55:39;98158.72;;;7.24;100.00
69257;BME280;56376;53.356;-1.748;2023-03-16T05:58:05;98151.06;;;7.21;100.00
69257;BME280;56376;53.356;-1.748;2023-03-16T06:00:30;98151.91;;;7.22;100.00
69257;BME280;56376;53.356;-1.748;2023-03-16T06:02:56;98149.31;;;7.22;100.00
69257;BME280;56376;53.356;-1.748;2023-03-16T06:05:21;98155.47;;;7.19;100.00
69257;BME280;56376;53.356;-1.748;2023-03-16T06:07:48;98157.09;;;7.22;100.00
69257;BME280;56376;53.356;-1.748;2023-03-16T06:10:14;98150.28;;;7.19;100.00
69257;BME280;56376;53.356;-1.748;2023-03-16T06:12:40;98146.72;;;7.22;100.00
69257;BME280;56376;53.356;-1.748;2023-03-16T06:15:06;98138.88;;;7.23;100.00
69257;BME280;56376;53.356;-1.748;2023-03-16T06:17:33;98126.78;;;7.22;100.00
69257;BME280;56376;53.356;-1.748;2023-03-16T06:19:59;98139.84;;;7.21;100.00
69257;BME280;56376;53.356;-1.748;2023-03-16T06:22:25;98133.72;;;7.22;100.00
69257;BME280;56376;53.356;-1.748;2023-03-16T06:24:51;98137.16;;;7.22;100.00
69257;BME280;56376;53.356;-1.748;2023-03-16T06:27:18;98140.69;;;7.21;100.00
69257;BME280;56376;53.356;-1.748;2023-03-16T06:29:45;98125.00;;;7.23;100.00
69257;BME280;56376;53.356;-1.748;2023-03-16T06:32:11;98135.34;;;7.24;100.00
69257;BME280;56376;53.356;-1.748;2023-03-16T06:34:36;98138.78;;;7.25;100.00
69257;BME280;56376;53.356;-1.748;2023-03-16T06:37:02;98135.34;;;7.24;100.00
69257;BME280;56376;53.356;-1.748;2023-03-16T06:39:28;98125.72;;;7.26;100.00
69257;BME280;56376;53.356;-1.748;2023-03-16T06:41:54;98122.34;;;7.24;100.00
69257;BME280;56376;53.356;-1.748;2023-03-16T06:44:19;98126.56;;;7.27;100.00
69257;BME280;56376;53.356;-1.748;2023-03-16T06:46:45;98115.34;;;7.26;100.00
69257;BME280;56376;53.356;-1.748;2023-03-16T06:49:10;98120.44;;;7.28;100.00
69257;BME280;56376;53.356;-1.748;2023-03-16T06:51:36;98124.75;;;7.29;100.00
69257;BME280;56376;53.356;-1.748;2023-03-16T06:54:01;98123.00;;;7.29;100.00
69257;BME280;56376;53.356;-1.748;2023-03-16T06:56:27;98120.25;;;7.32;100.00
69257;BME280;56376;53.356;-1.748;2023-03-16T06:58:53;98122.84;;;7.32;100.00
69257;BME280;56376;53.356;-1.748;2023-03-16T07:01:18;98124.53;;;7.33;100.00
69257;BME280;56376;53.356;-1.748;2023-03-16T07:03:43;98125.28;;;7.35;100.00
69257;BME280;56376;53.356;-1.748;2023-03-16T07:06:09;98122.63;;;7.37;100.00
69257;BME280;56376;53.356;-1.748;2023-03-16T07:08:34;98125.19;;;7.39;100.00
69257;BME280;56376;53.356;-1.748;2023-03-16T07:11:00;98122.59;;;7.39;100.00
69257;BME280;56376;53.356;-1.748;2023-03-16T07:13:28;98114.78;;;7.39;100.00
69257;BME280;56376;53.356;-1.748;2023-03-16T07:15:54;98124.25;;;7.40;100.00
69257;BME280;56376;53.356;-1.748;2023-03-16T07:18:19;98119.06;;;7.40;100.00
69257;BME280;56376;53.356;-1.748;2023-03-16T07:20:45;98118.06;;;7.42;100.00
69257;BME280;56376;53.356;-1.748;2023-03-16T07:23:10;98120.72;;;7.41;100.00
69257;BME280;56376;53.356;-1.748;2023-03-16T07:25:36;98123.31;;;7.41;100.00
69257;BME280;56376;53.356;-1.748;2023-03-16T07:28:02;98124.25;;;7.40;100.00
69257;BME280;56376;53.356;-1.748;2023-03-16T07:30:28;98120.72;;;7.41;100.00
69257;BME280;56376;53.356;-1.748;2023-03-16T07:32:54;98128.41;;;7.44;100.00
69257;BME280;56376;53.356;-1.748;2023-03-16T07:35:19;98116.31;;;7.43;100.00
69257;BME280;56376;53.356;-1.748;2023-03-16T07:37:46;98108.47;;;7.44;100.00
69257;BME280;56376;53.356;-1.748;2023-03-16T07:40:12;98116.16;;;7.46;100.00
69257;BME280;56376;53.356;-1.748;2023-03-16T07:42:38;98121.31;;;7.47;100.00
69257;BME280;56376;53.356;-1.748;2023-03-16T07:45:05;98135.69;;;7.54;100.00
69257;BME280;56376;53.356;-1.748;2023-03-16T07:47:30;98133.03;;;7.56;100.00
69257;BME280;56376;53.356;-1.748;2023-03-16T07:49:58;98139.91;;;7.57;100.00
69257;BME280;56376;53.356;-1.748;2023-03-16T07:52:24;98144.28;;;7.56;100.00
69257;BME280;56376;53.356;-1.748;2023-03-16T07:54:49;98141.69;;;7.56;100.00
69257;BME280;56376;53.356;-1.748;2023-03-16T07:57:15;98142.50;;;7.57;100.00
69257;BME280;56376;53.356;-1.748;2023-03-16T07:59:40;98130.44;;;7.56;100.00
69257;BME280;56376;53.356;-1.748;2023-03-16T08:02:11;98126.16;;;7.55;100.00
69257;BME280;56376;53.356;-1.748;2023-03-16T08:04:37;98123.53;;;7.55;100.00
69257;BME280;56376;53.356;-1.748;2023-03-16T08:07:02;98118.34;;;7.55;100.00
69257;BME280;56376;53.356;-1.748;2023-03-16T08:09:28;98120.94;;;7.55;100.00
69257;BME280;56376;53.356;-1.748;2023-03-16T08:11:53;98120.06;;;7.56;100.00
69257;BME280;56376;53.356;-1.748;2023-03-16T08:14:19;98120.06;;;7.56;100.00
69257;BME280;56376;53.356;-1.748;2023-03-16T08:16:44;98115.75;;;7.55;100.00
69257;BME280;56376;53.356;-1.748;2023-03-16T08:19:10;98119.13;;;7.57;100.00
69257;BME280;56376;53.356;-1.748;2023-03-16T08:21:37;98119.06;;;7.58;100.00
69257;BME280;56376;53.356;-1.748;2023-03-16T08:24:02;98116.38;;;7.60;100.00
69257;BME280;56376;53.356;-1.748;2023-03-16T08:26:28;98114.56;;;7.62;100.00
69257;BME280;56376;53.356;-1.748;2023-03-16T08:28:53;98119.75;;;7.62;100.00
69257;BME280;56376;53.356;-1.748;2023-03-16T08:31:21;98114.50;;;7.64;100.00
69257;BME280;56376;53.356;-1.748;2023-03-16T08:33:49;98111.81;;;7.65;100.00
69257;BME280;56376;53.356;-1.748;2023-03-16T08:36:16;98123.81;;;7.68;100.00
69257;BME280;56376;53.356;-1.748;2023-03-16T08:38:41;98116.78;;;7.70;100.00
69257;BME280;56376;53.356;-1.748;2023-03-16T08:41:08;98120.22;;;7.70;100.00
69257;BME280;56376;53.356;-1.748;2023-03-16T08:43:34;98116.72;;;7.71;100.00
69257;BME280;56376;53.356;-1.748;2023-03-16T08:45:59;98116.72;;;7.71;100.00
69257;BME280;56376;53.356;-1.748;2023-03-16T08:48:26;98118.25;;;7.75;100.00
69257;BME280;56376;53.356;-1.748;2023-03-16T08:50:53;98122.56;;;7.76;100.00
69257;BME280;56376;53.356;-1.748;2023-03-16T08:53:18;98117.25;;;7.78;100.00
69257;BME280;56376;53.356;-1.748;2023-03-16T08:55:45;98113.69;;;7.80;100.00
69257;BME280;56376;53.356;-1.748;2023-03-16T08:58:11;98111.06;;;7.80;100.00
69257;BME280;56376;53.356;-1.748;2023-03-16T09:00:38;98104.97;;;7.82;100.00
69257;BME280;56376;53.356;-1.748;2023-03-16T09:03:04;98104.13;;;7.81;100.00
69257;BME280;56376;53.356;-1.748;2023-03-16T09:05:30;98106.66;;;7.83;100.00
69257;BME280;56376;53.356;-1.748;2023-03-16T09:07:56;98110.03;;;7.85;100.00
69257;BME280;56376;53.356;-1.748;2023-03-16T09:10:21;98104.00;;;7.84;100.00
69257;BME280;56376;53.356;-1.748;2023-03-16T09:12:50;98102.91;;;7.88;100.00
69257;BME280;56376;53.356;-1.748;2023-03-16T09:15:17;98102.00;;;7.89;100.00
69257;BME280;56376;53.356;-1.748;2023-03-16T09:17:44;98101.81;;;7.94;100.00
69257;BME280;56376;53.356;-1.748;2023-03-16T09:20:11;98112.03;;;7.97;100.00
69257;BME280;56376;53.356;-1.748;2023-03-16T09:22:37;98114.72;;;7.95;100.00
69257;BME280;56376;53.356;-1.748;2023-03-16T09:25:06;98116.31;;;7.98;100.00
69257;BME280;56376;53.356;-1.748;2023-03-16T09:27:33;98108.59;;;7.96;100.00
69257;BME280;56376;53.356;-1.748;2023-03-16T09:29:59;98118.13;;;7.96;100.00
69257;BME280;56376;53.356;-1.748;2023-03-16T09:32:26;98107.63;;;7.99;100.00
69257;BME280;56376;53.356;-1.748;2023-03-16T09:34:53;98106.06;;;7.95;100.00
69257;BME280;56376;53.356;-1.748;2023-03-16T09:37:19;98110.28;;;7.97;100.00
69257;BME280;56376;53.356;-1.748;2023-03-16T09:39:44;98106.06;;;7.95;100.00
69257;BME280;56376;53.356;-1.748;2023-03-16T09:45:08;98099.72;;;8.00;100.00
69257;BME280;56376;53.356;-1.748;2023-03-16T09:47:39;98092.69;;;8.02;100.00
69257;BME280;56376;53.356;-1.748;2023-03-16T09:50:07;98083.97;;;8.03;100.00
69257;BME280;56376;53.356;-1.748;2023-03-16T09:55:25;98092.53;;;8.06;100.00
69257;BME280;56376;53.356;-1.748;2023-03-16T09:57:52;98068.13;;;8.08;100.00
69257;BME280;56376;53.356;-1.748;2023-03-16T10:00:21;98073.19;;;8.11;100.00
69257;BME280;56376;53.356;-1.748;2023-03-16T10:05:28;98074.94;;;8.11;100.00
69257;BME280;56376;53.356;-1.748;2023-03-16T10:08:19;98082.69;;;8.12;100.00
69257;BME280;56376;53.356;-1.748;2023-03-16T10:15:58;98084.47;;;8.12;100.00
69257;BME280;56376;53.356;-1.748;2023-03-16T10:18:34;98070.47;;;8.14;100.00
69257;BME280;56376;53.356;-1.748;2023-03-16T10:21:03;98067.75;;;8.16;100.00
69257;BME280;56376;53.356;-1.748;2023-03-16T10:23:31;98065.16;;;8.16;100.00
69257;BME280;56376;53.356;-1.748;2023-03-16T10:26:00;98069.38;;;8.18;100.00
69257;BME280;56376;53.356;-1.748;2023-03-16T10:28:31;98058.19;;;8.16;100.00
69257;BME280;56376;53.356;-1.748;2023-03-16T10:30:58;98065.72;;;8.22;100.00
69257;BME280;56376;53.356;-1.748;2023-03-16T10:33:33;98067.31;;;8.25;100.00
69257;BME280;56376;53.356;-1.748;2023-03-16T10:38:41;98050.38;;;8.34;100.00
69257;BME280;56376;53.356;-1.748;2023-03-16T10:43:45;98046.69;;;8.39;100.00
69257;BME280;56376;53.356;-1.748;2023-03-16T10:46:11;98034.50;;;8.40;100.00
69257;BME280;56376;53.356;-1.748;2023-03-16T10:48:38;98047.34;;;8.43;100.00
69257;BME280;56376;53.356;-1.748;2023-03-16T10:51:09;98040.31;;;8.45;100.00
69257;BME280;56376;53.356;-1.748;2023-03-16T10:53:39;98045.44;;;8.47;100.00
69257;BME280;56376;53.356;-1.748;2023-03-16T10:56:12;98052.22;;;8.49;100.00
69257;BME280;56376;53.356;-1.748;2023-03-16T10:58:44;98040.75;;;8.53;100.00
69257;BME280;56376;53.356;-1.748;2023-03-16T11:01:17;98051.00;;;8.56;100.00
69257;BME280;56376;53.356;-1.748;2023-03-16T11:03:47;98056.06;;;8.59;100.00
69257;BME280;56376;53.356;-1.748;2023-03-16T11:06:27;98038.69;;;8.60;100.00
69257;BME280;56376;53.356;-1.748;2023-03-16T11:09:18;98039.59;;;8.59;100.00
69257;BME280;56376;53.356;-1.748;2023-03-16T11:11:48;98042.06;;;8.62;100.00
69257;BME280;56376;53.356;-1.748;2023-03-16T11:14:17;98055.06;;;8.62;100.00
69257;BME280;56376;53.356;-1.748;2023-03-16T11:16:49;98061.88;;;8.64;100.00
69257;BME280;56376;53.356;-1.748;2023-03-16T11:22:14;98060.13;;;8.65;100.00
69257;BME280;56376;53.356;-1.748;2023-03-16T11:27:28;98054.81;;;8.66;100.00
69257;BME280;56376;53.356;-1.748;2023-03-16T11:29:58;98047.94;;;8.65;100.00
69257;BME280;56376;53.356;-1.748;2023-03-16T11:32:35;98052.97;;;8.69;100.00
69257;BME280;56376;53.356;-1.748;2023-03-16T11:35:01;98059.78;;;8.71;100.00
69257;BME280;56376;53.356;-1.748;2023-03-16T11:38:12;98063.22;;;8.72;100.00
69257;BME280;56376;53.356;-1.748;2023-03-16T11:43:47;98061.31;;;8.75;100.00
69257;BME280;56376;53.356;-1.748;2023-03-16T11:46:33;98059.38;;;8.79;100.00
69257;BME280;56376;53.356;-1.748;2023-03-16T11:51:53;98052.16;;;8.84;100.00
69257;BME280;56376;53.356;-1.748;2023-03-16T12:02:36;98049.31;;;8.88;100.00
69257;BME280;56376;53.356;-1.748;2023-03-16T12:16:25;98024.41;;;9.00;100.00
69257;BME280;56376;53.356;-1.748;2023-03-16T12:18:58;98019.03;;;9.03;100.00
69257;BME280;56376;53.356;-1.748;2023-03-16T12:21:38;98022.97;;;9.10;100.00
69257;BME280;56376;53.356;-1.748;2023-03-16T12:24:11;98021.88;;;9.15;100.00
69257;BME280;56376;53.356;-1.748;2023-03-16T12:26:41;98011.13;;;9.21;100.00
69257;BME280;56376;53.356;-1.748;2023-03-16T12:31:53;98012.22;;;9.32;100.00
69257;BME280;56376;53.356;-1.748;2023-03-16T12:34:33;98007.44;;;9.41;100.00
69257;BME280;56376;53.356;-1.748;2023-03-16T12:37:15;97998.75;;;9.56;100.00
69257;BME280;56376;53.356;-1.748;2023-03-16T12:40:08;98007.94;;;9.78;100.00
69257;BME280;56376;53.356;-1.748;2023-03-16T12:48:18;97990.03;;;10.32;100.00
69257;BME280;56376;53.356;-1.748;2023-03-16T12:50:49;97982.31;;;10.45;100.00
69257;BME280;56376;53.356;-1.748;2023-03-16T12:56:08;97992.66;;;10.46;100.00
69257;BME280;56376;53.356;-1.748;2023-03-16T12:58:35;97986.59;;;10.46;100.00
69257;BME280;56376;53.356;-1.748;2023-03-16T13:01:07;97997.22;;;10.43;100.00
69257;BME280;56376;53.356;-1.748;2023-03-16T13:03:35;97991.16;;;10.42;100.00
69257;BME280;56376;53.356;-1.748;2023-03-16T13:06:01;97998.06;;;10.43;100.00
69257;BME280;56376;53.356;-1.748;2023-03-16T13:08:40;97988.28;;;10.47;100.00
69257;BME280;56376;53.356;-1.748;2023-03-16T13:11:09;97997.69;;;10.49;100.00
69257;BME280;56376;53.356;-1.748;2023-03-16T13:13:47;97997.63;;;10.51;100.00
69257;BME280;56376;53.356;-1.748;2023-03-16T13:16:24;97993.50;;;10.47;100.00
69257;BME280;56376;53.356;-1.748;2023-03-16T13:18:51;97973.53;;;10.46;100.00
69257;BME280;56376;53.356;-1.748;2023-03-16T13:21:33;97990.50;;;10.53;100.00
69257;BME280;56376;53.356;-1.748;2023-03-16T13:24:21;97990.34;;;10.56;100.00
69257;BME280;56376;53.356;-1.748;2023-03-16T13:26:53;97996.28;;;10.58;100.00
69257;BME280;56376;53.356;-1.748;2023-03-16T13:29:23;97981.38;;;10.60;100.00
69257;BME280;56376;53.356;-1.748;2023-03-16T13:31:50;97971.03;;;10.58;100.00
69257;BME280;56376;53.356;-1.748;2023-03-16T13:36:54;97967.22;;;10.64;100.00
69257;BME280;56376;53.356;-1.748;2023-03-16T13:39:22;97967.84;;;10.68;100.00
69257;BME280;56376;53.356;-1.748;2023-03-16T13:44:26;97979.69;;;10.73;100.00
69257;BME280;56376;53.356;-1.748;2023-03-16T13:46:52;97976.16;;;10.74;100.00
69257;BME280;56376;53.356;-1.748;2023-03-16T13:49:18;97979.59;;;10.75;100.00
69257;BME280;56376;53.356;-1.748;2023-03-16T13:51:45;97982.97;;;10.77;100.00
69257;BME280;56376;53.356;-1.748;2023-03-16T13:54:23;97984.63;;;10.78;100.00
69257;BME280;56376;53.356;-1.748;2023-03-16T13:56:56;97983.59;;;10.80;100.00
69257;BME280;56376;53.356;-1.748;2023-03-16T13:59:22;97989.84;;;10.78;100.00
69257;BME280;56376;53.356;-1.748;2023-03-16T14:01:54;97995.91;;;10.78;100.00
69257;BME280;56376;53.356;-1.748;2023-03-16T14:04:25;97995.19;;;10.76;100.00
69257;BME280;56376;53.356;-1.748;2023-03-16T14:06:56;97990.13;;;10.73;100.00